Time;durP1;ratioP1;P1;durP2;ratioP2;P2;SDS_P1;SDS_P2;PMS_P1;PMS_P2;Temp;Humidity;BMP_temperature;BMP_pressure;BME280_temperature;BME280_humidity;BME280_pressure;Samples;Min_cycle;Max_cycle;Signal;HPM_P1;HPM_P2
2023/04/27 00:01:05;;;;;;;5.23;3.13;;;8.30;68.60;;;11.08;48.70;101907.56;5035684;28;20198;-60
2023/04/27 00:03:32;;;;;;;6.13;3.47;;;8.30;68.70;;;11.07;48.81;101900.63;5035168;28;20632;-61
2023/04/27 00:05:59;;;;;;;5.83;4.07;;;8.30;68.70;;;11.06;48.92;101912.13;5035970;28;20531;-61
2023/04/27 00:08:26;;;;;;;5.93;3.50;;;8.30;68.60;;;11.03;48.36;101899.28;5036022;28;20745;-60
2023/04/27 00:10:53;;;;;;;5.50;3.90;;;8.30;68.40;;;10.99;48.49;101903.16;5035389;28;20210;-61
2023/04/27 00:13:21;;;;;;;5.17;3.50;;;8.20;68.00;;;10.96;48.46;101898.22;5034295;28;20209;-62
2023/04/27 00:15:48;;;;;;;5.10;3.40;;;8.20;68.40;;;10.94;49.33;101894.88;5035210;28;20214;-62
2023/04/27 00:18:15;;;;;;;5.27;4.07;;;8.20;68.90;;;10.93;49.08;101894.06;5034030;28;20195;-62
2023/04/27 00:20:43;;;;;;;5.53;3.60;;;8.20;69.00;;;10.92;48.87;101902.94;5035003;28;20197;-60
2023/04/27 00:23:10;;;;;;;3.87;3.50;;;8.10;68.80;;;10.89;48.73;101898.78;5035606;28;20194;-62
2023/04/27 00:25:37;;;;;;;4.63;3.47;;;8.10;68.60;;;10.87;49.02;101895.47;5036381;28;20210;-62
2023/04/27 00:28:05;;;;;;;4.50;3.50;;;8.10;68.60;;;10.84;48.68;101895.75;5034994;28;20244;-62
2023/04/27 00:30:33;;;;;;;6.17;3.87;;;8.10;68.90;;;10.83;49.15;101899.38;5035320;28;20218;-59
2023/04/27 00:33:00;;;;;;;6.93;3.27;;;8.10;68.70;;;10.80;49.05;101894.41;5034930;28;20202;-61
2023/04/27 00:35:27;;;;;;;4.27;3.30;;;8.00;68.50;;;10.77;48.60;101894.69;5034828;28;20224;-58
2023/04/27 00:37:54;;;;;;;5.37;3.50;;;8.00;68.40;;;10.74;48.58;101894.97;5034991;28;20269;-61
2023/04/27 00:40:21;;;;;;;5.70;3.60;;;8.00;68.80;;;10.73;49.39;101895.97;5035074;28;20229;-58
2023/04/27 00:42:48;;;;;;;4.70;3.63;;;7.90;68.90;;;10.72;48.81;101901.41;5035044;28;20250;-62
2023/04/27 00:45:15;;;;;;;6.10;3.37;;;7.90;68.90;;;10.70;49.17;101908.59;5035149;28;20214;-61
2023/04/27 00:47:44;;;;;;;5.93;3.50;;;7.90;69.10;;;10.68;49.50;101906.13;5035262;28;20203;-61
2023/04/27 00:50:11;;;;;;;6.67;4.30;;;7.90;69.40;;;10.68;48.98;101905.28;5035914;28;20233;-61
2023/04/27 00:52:39;;;;;;;5.90;3.70;;;7.90;69.50;;;10.65;49.51;101911.66;5034161;28;20671;-61
2023/04/27 00:55:08;;;;;;;4.70;3.67;;;7.80;69.50;;;10.63;49.50;101916.25;5034842;28;20692;-62
2023/04/27 00:57:35;;;;;;;4.87;3.63;;;7.80;69.30;;;10.60;48.97;101921.78;5034970;28;20754;-62
2023/04/27 01:00:05;;;;;;;4.10;3.70;;;7.80;69.30;;;10.58;49.22;101920.28;5034497;28;20208;-60
2023/04/27 01:02:35;;;;;;;5.10;3.80;;;7.80;69.50;;;10.56;49.34;101928.34;5034507;28;20206;-62
2023/04/27 01:05:05;;;;;;;4.27;3.30;;;7.80;69.60;;;10.54;49.43;101922.41;5034224;28;20214;-61
2023/04/27 01:07:36;;;;;;;5.87;3.83;;;7.70;69.40;;;10.51;49.25;101930.56;5034381;28;20286;-62
2023/04/27 01:10:04;;;;;;;6.23;4.27;;;7.70;69.40;;;10.48;49.58;101925.63;5034714;28;20268;-61
2023/04/27 01:12:31;;;;;;;7.03;3.73;;;7.70;69.70;;;10.45;49.02;101925.91;5034091;28;20194;-60
2023/04/27 01:14:58;;;;;;;4.80;3.77;;;7.70;69.50;;;10.42;49.15;101936.72;5032538;28;20218;-62
2023/04/27 01:17:25;;;;;;;5.97;3.70;;;7.60;69.40;;;10.37;49.50;101936.31;5033135;28;20260;-62
2023/04/27 01:19:54;;;;;;;4.30;3.87;;;7.60;69.50;;;10.34;49.61;101931.31;5034256;28;20754;-63
2023/04/27 01:22:22;;;;;;;6.40;3.57;;;7.60;69.80;;;10.30;49.23;101934.38;5034601;28;20549;-61
2023/04/27 01:24:50;;;;;;;6.17;4.53;;;7.50;69.90;;;10.26;49.89;101933.03;5031835;28;20218;-62
2023/04/27 01:27:17;;;;;;;8.73;3.90;;;7.50;69.70;;;10.23;49.43;101939.41;5049669;28;20636;-62
2023/04/27 01:29:45;;;;;;;4.40;3.73;;;7.40;69.80;;;10.18;49.84;101942.47;5033057;28;20245;-61
2023/04/27 01:32:11;;;;;;;5.50;3.70;;;7.40;70.20;;;10.16;50.00;101947.03;5034596;28;20202;-61
2023/04/27 01:34:39;;;;;;;6.00;4.03;;;7.40;70.30;;;10.13;49.54;101944.69;5033902;28;20698;-64
2023/04/27 01:37:05;;;;;;;5.10;4.00;;;7.30;70.60;;;10.11;50.42;101943.13;5033483;28;20241;-62
2023/04/27 01:39:33;;;;;;;10.93;4.40;;;7.30;70.80;;;10.08;49.72;101946.03;5033709;28;20214;-62
2023/04/27 01:42:02;;;;;;;4.53;3.87;;;7.30;70.90;;;10.07;49.71;101947.03;5034037;28;20191;-62
2023/04/27 01:44:29;;;;;;;7.70;4.43;;;7.20;71.00;;;10.05;50.29;101952.44;5018774;28;20227;-62
2023/04/27 01:46:56;;;;;;;5.30;3.60;;;7.20;70.80;;;10.02;49.73;101955.34;5032848;28;20207;-63
2023/04/27 01:49:23;;;;;;;5.47;4.27;;;7.20;70.90;;;10.00;50.39;101957.28;5033251;28;20198;-60
2023/04/27 01:51:50;;;;;;;6.00;4.17;;;7.20;71.30;;;9.98;49.98;101950.50;5033466;28;20234;-61
2023/04/27 01:54:17;;;;;;;6.97;4.03;;;7.10;71.30;;;9.95;50.46;101948.16;5033554;28;20210;-61
2023/04/27 01:56:44;;;;;;;4.13;3.40;;;7.10;71.30;;;9.93;50.05;101956.19;5033905;28;20193;-61
2023/04/27 01:59:12;;;;;;;6.67;4.27;;;7.10;71.40;;;9.92;50.14;101953.69;5033699;28;20193;-61
2023/04/27 02:01:40;;;;;;;9.13;4.57;;;7.10;71.50;;;9.89;50.47;101960.03;5033967;28;20183;-63
2023/04/27 02:04:07;;;;;;;5.20;4.20;;;7.10;71.20;;;9.87;50.20;101955.88;5033026;28;20268;-61
2023/04/27 02:06:34;;;;;;;5.33;4.23;;;7.10;72.30;;;9.86;50.89;101964.75;5032263;28;20235;-58
2023/04/27 02:09:01;;;;;;;4.97;3.77;;;7.00;71.80;;;9.84;50.69;101962.25;5033185;28;20194;-61
2023/04/27 02:11:28;;;;;;;5.33;3.90;;;7.00;72.00;;;9.85;50.35;101960.47;5033454;28;20217;-62
2023/04/27 02:13:55;;;;;;;4.70;3.53;;;7.00;72.20;;;9.82;50.59;101964.19;5033191;28;20190;-62
2023/04/27 02:16:23;;;;;;;7.33;3.70;;;7.00;71.90;;;9.79;50.89;101964.50;5033689;28;20190;-60
2023/04/27 02:18:52;;;;;;;9.70;4.00;;;7.00;72.40;;;9.76;50.53;101963.94;5033838;28;20299;-61
2023/04/27 02:21:19;;;;;;;6.17;4.13;;;6.90;71.80;;;9.74;50.53;101963.25;5033250;28;20563;-61
2023/04/27 02:23:46;;;;;;;4.17;3.77;;;6.90;71.80;;;9.71;50.88;101960.88;5032581;28;20208;-61
2023/04/27 02:26:18;;;;;;;4.50;4.00;;;6.90;71.90;;;9.69;51.10;101965.47;5033116;28;20206;-61
2023/04/27 02:28:46;;;;;;;7.90;3.57;;;6.90;72.20;;;9.68;50.75;101958.53;5033044;28;20179;-60
2023/04/27 02:31:14;;;;;;;4.17;3.77;;;6.90;72.00;;;9.66;50.84;101963.09;5033413;28;20631;-60
2023/04/27 02:33:42;;;;;;;5.83;3.73;;;6.90;72.00;;;9.64;50.99;101962.41;5032987;28;20229;-60
2023/04/27 02:36:09;;;;;;;5.77;4.23;;;6.80;72.10;;;9.62;50.72;101961.72;5034187;28;20683;-61
2023/04/27 02:38:36;;;;;;;4.80;4.03;;;6.80;72.30;;;9.62;50.90;101962.56;5037296;28;20198;-61
2023/04/27 02:41:03;;;;;;;6.37;4.47;;;6.80;72.40;;;9.60;50.85;101961.03;5018394;28;20235;-62
2023/04/27 02:43:30;;;;;;;5.83;3.67;;;6.80;72.40;;;9.59;51.25;101962.81;5017277;28;20188;-62
2023/04/27 02:46:02;;;;;;;6.53;3.60;;;6.80;72.40;;;9.58;50.97;101960.34;5029431;28;20232;-61
2023/04/27 02:48:29;;;;;;;5.17;3.90;;;6.70;72.30;;;9.58;50.96;101962.97;5037684;28;20202;-62
2023/04/27 02:50:58;;;;;;;5.30;4.00;;;6.70;72.60;;;9.58;51.23;101965.59;5036879;28;20206;-62
2023/04/27 02:53:25;;;;;;;6.03;4.60;;;6.70;72.80;;;9.57;51.43;101963.94;5035841;28;20241;-62
2023/04/27 02:55:51;;;;;;;4.80;4.30;;;6.70;72.80;;;9.57;50.92;101963.94;5036775;28;20218;-61
2023/04/27 02:58:18;;;;;;;6.90;4.20;;;6.70;72.80;;;9.54;51.21;101959.78;5037253;28;20191;-63
2023/04/27 03:00:45;;;;;;;6.57;4.27;;;6.70;72.60;;;9.54;51.39;101965.03;5036830;28;20206;-62
2023/04/27 03:03:14;;;;;;;5.90;4.53;;;6.70;72.70;;;9.53;51.11;101963.38;5036714;28;20222;-64
2023/04/27 03:05:41;;;;;;;4.77;3.87;;;6.70;72.80;;;9.52;51.12;101957.31;5034982;28;20268;-61
2023/04/27 03:08:10;;;;;;;7.10;4.60;;;6.70;72.70;;;9.49;51.26;101947.06;5036124;28;20554;-59
2023/04/27 03:10:37;;;;;;;11.60;4.60;;;6.70;72.60;;;9.47;51.05;101964.75;5036053;28;20218;-62
2023/04/27 03:13:04;;;;;;;6.80;4.20;;;6.70;73.10;;;9.45;51.63;101955.34;5036545;28;20210;-62
2023/04/27 03:15:31;;;;;;;7.20;4.50;;;6.60;73.20;;;9.44;51.23;101956.31;5036053;28;20222;-62
2023/04/27 03:17:57;;;;;;;7.97;5.13;;;6.60;73.20;;;9.43;51.53;101958.13;5035472;28;20198;-62
2023/04/27 03:20:24;;;;;;;6.40;4.50;;;6.60;73.60;;;9.44;52.06;101962.41;5036737;28;20231;-60
2023/04/27 03:22:51;;;;;;;5.77;4.70;;;6.60;73.50;;;9.45;51.64;101957.97;5036616;28;20204;-62
2023/04/27 03:25:20;;;;;;;7.90;4.60;;;6.60;73.60;;;9.44;51.89;101958.94;5050898;28;20217;-61
2023/04/27 03:27:47;;;;;;;8.50;4.73;;;6.60;73.40;;;9.44;51.47;101964.19;5036298;28;20199;-62
2023/04/27 03:30:14;;;;;;;6.50;4.80;;;6.60;73.60;;;9.43;51.80;101966.00;5036016;28;20195;-61
2023/04/27 03:32:41;;;;;;;6.03;4.43;;;6.60;73.60;;;9.42;51.41;101969.59;5036083;28;21306;-62
2023/04/27 03:35:09;;;;;;;4.53;3.83;;;6.60;73.60;;;9.39;51.81;101961.97;5035172;28;20206;-60
2023/04/27 03:37:36;;;;;;;5.60;4.13;;;6.60;73.50;;;9.39;51.81;101967.22;5036355;28;20187;-61
2023/04/27 03:40:08;;;;;;;7.97;4.77;;;6.60;73.70;;;9.37;51.54;101966.53;5035706;28;20389;-61
2023/04/27 03:42:36;;;;;;;7.00;4.87;;;6.60;73.70;;;9.36;51.55;101971.94;5036151;28;20185;-60
2023/04/27 03:45:05;;;;;;;6.03;4.60;;;6.50;73.70;;;9.33;51.67;101973.03;5034780;28;20211;-64
2023/04/27 03:47:32;;;;;;;7.97;5.13;;;6.50;73.50;;;9.32;51.98;101974.00;5034656;28;20191;-60
2023/04/27 03:49:59;;;;;;;5.60;4.43;;;6.50;73.70;;;9.32;51.91;101974.00;5034982;28;20217;-62
2023/04/27 03:52:26;;;;;;;11.30;4.63;;;6.50;74.00;;;9.30;52.04;101970.69;5036626;28;20220;-62
2023/04/27 04:09:22;;;;;;;8.77;4.70;;;6.40;74.00;;;8.98;52.80;101983.19;5034449;28;20268;-61
2023/04/27 04:11:52;;;;;;;6.07;4.43;;;6.40;74.10;;;9.01;52.94;101977.66;5032837;28;20218;-63
2023/04/27 04:14:19;;;;;;;6.20;4.37;;;6.40;74.30;;;9.07;52.79;101981.53;5025370;28;20567;-62
2023/04/27 04:16:45;;;;;;;9.03;4.53;;;6.40;74.40;;;9.10;52.81;101974.25;5034896;28;20209;-61
2023/04/27 04:19:12;;;;;;;7.60;5.13;;;6.40;74.40;;;9.12;52.84;101974.09;5034393;28;20216;-62
2023/04/27 04:21:40;;;;;;;8.80;5.20;;;6.40;74.50;;;9.14;52.78;101982.66;5033611;28;20201;-61
2023/04/27 04:24:09;;;;;;;7.43;5.30;;;6.30;74.40;;;9.14;52.67;101977.41;5030982;28;20219;-59
2023/04/27 04:26:37;;;;;;;7.20;4.70;;;6.30;74.40;;;9.13;52.54;101981.84;5030126;28;20207;-61
2023/04/27 04:29:05;;;;;;;7.07;5.43;;;6.30;74.40;;;9.13;52.37;101981.84;5035067;28;20551;-61
2023/04/27 04:31:35;;;;;;;8.07;4.93;;;6.30;74.60;;;9.14;52.49;101994.00;5033620;28;20233;-61
2023/04/27 04:34:02;;;;;;;6.93;4.70;;;6.30;74.60;;;9.15;52.62;101989.59;5032934;28;20191;-62
2023/04/27 04:36:30;;;;;;;6.30;5.03;;;6.30;74.60;;;9.18;52.96;101998.03;5034617;28;20294;-61
2023/04/27 04:38:58;;;;;;;9.27;5.30;;;6.30;75.20;;;9.23;53.07;101993.19;5035497;28;20190;-61
2023/04/27 04:41:24;;;;;;;6.60;5.80;;;6.30;75.50;;;9.29;52.85;101991.84;5034793;28;20191;-61
2023/04/27 04:43:51;;;;;;;7.63;5.30;;;6.40;75.20;;;9.34;52.72;101984.38;5034441;28;20204;-61
2023/04/27 04:46:21;;;;;;;8.43;5.20;;;6.40;75.30;;;9.38;52.97;101994.47;5034070;28;20205;-61
2023/04/27 04:48:47;;;;;;;8.33;5.17;;;6.50;75.20;;;9.42;52.88;101998.50;5034773;28;20194;-61
2023/04/27 04:51:14;;;;;;;7.67;5.10;;;6.50;75.00;;;9.48;53.12;102003.19;5033914;28;20229;-61
2023/04/27 04:53:41;;;;;;;5.87;4.97;;;6.60;75.20;;;9.52;53.07;102004.59;5035637;28;20668;-61
2023/04/27 04:56:10;;;;;;;6.17;5.30;;;6.60;75.70;;;9.61;53.24;102002.09;5049155;28;20218;-61
2023/04/27 04:58:37;;;;;;;7.23;4.93;;;6.70;75.60;;;9.74;53.35;102002.69;5034065;28;20559;-62
2023/04/27 05:01:04;;;;;;;6.43;4.57;;;6.90;75.60;;;9.84;52.88;102000.88;5034027;28;20651;-60
2023/04/27 05:03:33;;;;;;;6.20;4.57;;;7.00;74.90;;;9.92;52.50;102001.00;5033944;28;20718;-61
2023/04/27 05:06:01;;;;;;;7.67;5.03;;;7.10;74.20;;;9.96;51.92;101997.16;5033842;28;20242;-63
2023/04/27 05:08:27;;;;;;;7.53;5.40;;;7.10;73.90;;;10.00;52.09;101993.25;5034289;28;20197;-62
2023/04/27 05:10:54;;;;;;;7.13;4.77;;;7.20;74.00;;;10.03;51.67;101998.25;5034048;28;20199;-63
2023/04/27 05:13:23;;;;;;;8.03;4.37;;;7.20;73.50;;;10.04;51.63;101995.47;5033055;28;20210;-62
2023/04/27 05:15:51;;;;;;;5.37;4.50;;;7.20;73.50;;;10.06;51.39;101993.53;5033707;28;20293;-64
2023/04/27 05:18:18;;;;;;;6.67;3.97;;;7.20;73.30;;;10.07;51.50;101997.00;5045585;28;20210;-61
2023/04/27 05:20:46;;;;;;;8.47;4.50;;;7.20;73.00;;;10.06;51.53;102003.22;5024093;28;20206;-61
2023/04/27 05:23:13;;;;;;;5.20;4.40;;;7.20;72.90;;;10.04;51.51;102000.72;5034012;28;20193;-64
2023/04/27 05:25:40;;;;;;;8.17;5.20;;;7.20;72.80;;;10.05;51.32;102006.84;5028894;28;20785;-63
2023/04/27 05:28:08;;;;;;;6.63;5.00;;;7.20;73.00;;;10.07;51.57;102012.78;5032212;28;20218;-60
2023/04/27 05:30:35;;;;;;;9.90;5.10;;;7.20;73.20;;;10.11;51.65;102022.03;5033969;28;20187;-63
2023/04/27 05:33:04;;;;;;;6.07;4.20;;;7.20;73.50;;;10.16;51.39;102022.50;5033905;28;20305;-64
2023/04/27 05:35:32;;;;;;;7.53;4.80;;;7.20;73.60;;;10.19;51.40;102022.22;5033475;28;20705;-62
2023/04/27 05:38:00;;;;;;;8.30;4.63;;;7.20;73.80;;;10.27;51.34;102024.97;5034195;28;20229;-63
2023/04/27 05:40:28;;;;;;;7.40;5.77;;;7.30;73.70;;;10.36;51.65;102024.13;5033595;28;20221;-60
2023/04/27 05:42:56;;;;;;;7.83;5.60;;;7.40;73.50;;;10.41;51.00;102024.50;5033010;28;20589;-64
2023/04/27 05:45:23;;;;;;;5.87;4.83;;;7.50;73.50;;;10.45;51.23;102025.06;5033100;28;20607;-62
2023/04/27 05:47:50;;;;;;;9.43;5.00;;;7.50;73.20;;;10.47;51.16;102029.22;5033656;28;20533;-62
2023/04/27 05:50:17;;;;;;;10.30;5.17;;;7.50;72.80;;;10.49;50.79;102016.75;5032497;28;20621;-63
2023/04/27 05:52:46;;;;;;;10.87;4.77;;;7.60;72.90;;;10.54;50.76;102017.16;5033091;28;20229;-62
2023/04/27 05:55:14;;;;;;;6.83;4.90;;;7.60;72.80;;;10.58;51.03;102021.16;5032800;28;20214;-62
2023/04/27 05:57:41;;;;;;;8.07;5.17;;;7.60;72.90;;;10.63;50.82;102026.81;5033239;28;20194;-62
2023/04/27 06:00:10;;;;;;;8.20;5.23;;;7.70;72.90;;;10.70;51.06;102030.53;5033255;28;20199;-64
2023/04/27 06:02:37;;;;;;;8.30;5.20;;;7.70;72.80;;;10.77;50.36;102042.16;5032965;28;20210;-59
2023/04/27 06:05:05;;;;;;;7.13;5.87;;;7.80;72.80;;;10.81;51.00;102035.66;5033868;28;20246;-63
2023/04/27 06:07:32;;;;;;;7.93;5.60;;;7.80;72.70;;;10.89;50.88;102042.81;5033163;28;20205;-64
2023/04/27 06:09:59;;;;;;;10.47;6.33;;;7.90;72.70;;;10.93;50.55;102038.94;5032938;28;20194;-64
2023/04/27 06:12:28;;;;;;;8.17;5.50;;;7.90;72.30;;;10.99;50.03;102040.13;5038694;28;20663;-62
2023/04/27 06:14:55;;;;;;;8.67;5.10;;;8.00;72.30;;;11.06;50.23;102044.69;5039157;28;20236;-61
2023/04/27 06:17:22;;;;;;;6.00;4.50;;;8.00;72.20;;;11.14;50.58;102051.88;5040066;28;20564;-60
2023/04/27 06:19:49;;;;;;;7.50;5.47;;;8.10;72.10;;;11.23;50.52;102054.47;5039827;28;20198;-64
2023/04/27 06:22:15;;;;;;;7.63;5.90;;;8.20;71.90;;;11.31;49.57;102056.38;5039606;28;20647;-64
2023/04/27 06:24:42;;;;;;;6.10;4.83;;;8.30;71.50;;;11.39;50.06;102053.81;5037619;28;20210;-63
2023/04/27 06:27:10;;;;;;;5.70;4.60;;;8.30;71.50;;;11.46;49.59;102054.88;5039605;28;20726;-63
2023/04/27 06:29:38;;;;;;;8.20;5.30;;;8.40;72.00;;;11.52;49.36;102059.59;5039728;28;20201;-63
2023/04/27 06:32:05;;;;;;;5.33;4.27;;;8.50;70.90;;;11.56;49.43;102055.66;5039929;28;20248;-62
2023/04/27 06:34:34;;;;;;;5.97;4.53;;;8.50;70.50;;;11.63;49.01;102059.38;5039129;28;20214;-63
2023/04/27 06:37:01;;;;;;;6.33;4.67;;;8.60;70.20;;;11.70;48.88;102063.09;5040279;28;20185;-61
2023/04/27 06:39:28;;;;;;;6.70;4.93;;;8.70;70.00;;;11.79;48.63;102062.19;5056224;28;20199;-62
2023/04/27 06:41:55;;;;;;;7.40;4.70;;;8.70;70.00;;;11.91;48.83;102054.91;5039957;28;20185;-63
2023/04/27 06:44:22;;;;;;;6.63;4.17;;;8.80;69.90;;;12.02;48.75;102052.03;5038454;28;20218;-63
2023/04/27 06:46:50;;;;;;;4.23;3.50;;;8.90;69.50;;;12.12;48.12;102058.88;5039422;28;20546;-61
2023/04/27 06:49:17;;;;;;;4.50;3.60;;;9.00;68.90;;;12.21;48.02;102052.72;5039285;28;20273;-61
2023/04/27 06:51:45;;;;;;;8.00;4.43;;;9.10;68.40;;;12.29;47.66;102051.91;5039373;28;20206;-61
2023/04/27 06:54:12;;;;;;;5.77;4.97;;;9.20;68.10;;;12.40;47.34;102053.50;5037233;28;20312;-61
2023/04/27 06:56:39;;;;;;;5.23;3.93;;;9.30;68.00;;;12.50;47.33;102054.25;5039232;28;20232;-63
2023/04/27 06:59:07;;;;;;;7.13;3.67;;;9.40;67.60;;;12.59;46.78;102053.31;5039357;28;20201;-61
2023/04/27 07:01:35;;;;;;;6.23;2.97;;;9.50;67.00;;;12.65;46.68;102050.03;5040107;28;20186;-62
2023/04/27 07:04:04;;;;;;;7.63;5.00;;;9.60;66.60;;;12.75;46.74;102048.13;5039385;28;20643;-68
2023/04/27 07:06:32;;;;;;;7.80;3.70;;;9.70;66.20;;;12.83;46.17;102048.19;5025611;28;20197;-62
2023/04/27 07:08:59;;;;;;;6.77;3.47;;;9.80;66.10;;;12.91;45.99;102050.84;5040408;28;20270;-62
2023/04/27 07:11:26;;;;;;;5.83;3.13;;;9.90;65.40;;;12.99;45.71;102050.91;5039951;28;20302;-63
2023/04/27 07:13:53;;;;;;;5.30;3.23;;;10.00;63.90;;;13.06;45.30;102051.97;5038282;28;20217;-61
2023/04/27 07:16:21;;;;;;;5.23;3.23;;;10.00;63.70;;;13.14;44.92;102051.16;5038035;28;20230;-61
2023/04/27 07:18:48;;;;;;;5.23;3.50;;;10.10;62.80;;;13.23;44.98;102051.03;5039602;28;20654;-65
2023/04/27 07:21:16;;;;;;;3.03;2.53;;;10.20;63.10;;;13.36;44.73;102055.91;5038980;28;20206;-63
2023/04/27 07:23:45;;;;;;;5.27;3.27;;;10.30;62.60;;;13.46;44.68;102052.13;5037302;28;20182;-64
2023/04/27 07:26:12;;;;;;;6.23;3.53;;;10.40;62.60;;;13.57;44.48;102049.16;5051432;28;20187;-61
2023/04/27 07:28:39;;;;;;;6.83;3.63;;;10.50;62.20;;;13.69;44.26;102046.22;5035266;28;20202;-63
2023/04/27 07:31:06;;;;;;;4.23;2.83;;;10.60;61.60;;;13.80;43.70;102045.91;5036738;28;20198;-65
2023/04/27 07:33:33;;;;;;;2.90;2.43;;;10.80;61.00;;;13.97;43.47;102045.78;5036075;28;20663;-62
2023/04/27 07:36:01;;;;;;;3.90;3.03;;;10.90;60.30;;;14.50;43.26;102045.28;5034989;28;20210;-63
2023/04/27 07:38:30;;;;;;;3.90;3.00;;;11.10;61.10;;;15.29;42.73;102050.50;5035918;28;20572;-63
2023/04/27 07:41:00;;;;;;;3.00;2.70;;;11.40;61.30;;;16.26;41.58;102039.25;5035325;28;20297;-63
2023/04/27 07:43:27;;;;;;;5.63;2.93;;;11.90;60.70;;;17.30;39.30;102045.34;5035693;28;20186;-62
2023/04/27 07:45:57;;;;;;;3.27;1.80;;;12.50;59.50;;;18.31;36.71;102045.13;5035446;28;20219;-61
2023/04/27 07:48:24;;;;;;;5.63;2.80;;;13.20;56.60;;;19.27;35.49;102044.31;5035609;28;20257;-61
2023/04/27 07:50:51;;;;;;;3.27;2.40;;;13.90;55.80;;;19.71;34.44;102052.72;5036054;28;20558;-62
2023/04/27 07:53:19;;;;;;;4.43;3.00;;;14.50;54.00;;;20.13;33.29;102048.88;5048540;28;20223;-62
2023/04/27 07:55:48;;;;;;;4.80;4.00;;;15.00;51.60;;;21.00;32.55;102052.09;5032914;28;20682;-64
2023/04/27 07:58:15;;;;;;;5.17;3.47;;;15.50;51.30;;;22.01;30.43;102045.84;5036011;28;20222;-61
2023/04/27 08:00:42;;;;;;;3.77;2.37;;;16.20;48.70;;;23.01;28.95;102046.59;5036127;28;20257;-61
2023/04/27 08:03:09;;;;;;;7.33;3.40;;;16.80;46.30;;;24.20;27.86;102048.25;5034662;28;20206;-62
2023/04/27 08:05:37;;;;;;;3.53;2.70;;;17.50;46.10;;;25.24;25.75;102049.25;5031655;28;22037;-62
2023/04/27 08:08:05;;;;;;;4.33;2.43;;;18.30;41.70;;;26.15;24.99;102033.69;5031449;28;20632;-62
2023/04/27 08:10:32;;;;;;;3.97;2.33;;;19.00;40.60;;;26.84;21.96;102036.88;5031850;28;20198;-62
2023/04/27 08:13:00;;;;;;;5.97;3.20;;;19.60;35.30;;;27.53;21.91;102028.00;5031999;28;20218;-63
2023/04/27 08:15:28;;;;;;;5.03;3.50;;;20.30;36.70;;;28.19;21.88;102037.53;5031100;28;20309;-62
2023/04/27 08:17:55;;;;;;;6.20;3.03;;;20.90;35.80;;;28.62;20.03;102041.09;5049836;28;20195;-63
2023/04/27 08:20:22;;;;;;;3.47;2.80;;;21.40;32.30;;;29.04;19.97;102025.56;5034652;28;20202;-65
2023/04/27 08:22:50;;;;;;;5.80;2.80;;;21.80;32.00;;;29.59;19.73;102030.38;5034937;28;20202;-62
2023/04/27 08:25:18;;;;;;;5.70;3.47;;;22.20;30.80;;;30.25;18.26;102028.47;5032323;28;20275;-66
2023/04/27 08:27:45;;;;;;;3.57;2.53;;;22.60;29.60;;;30.71;18.02;102021.84;5035807;28;20198;-63
2023/04/27 08:30:15;;;;;;;3.63;2.37;;;23.00;29.30;;;31.06;17.11;102029.09;5034232;28;20195;-62
2023/04/27 08:32:42;;;;;;;4.70;3.07;;;23.30;27.60;;;31.15;16.83;102023.88;5035200;28;20306;-63
2023/04/27 08:35:10;;;;;;;5.43;2.80;;;23.60;26.40;;;31.29;15.58;102022.16;5033645;28;20222;-65
2023/04/27 08:37:37;;;;;;;7.93;2.83;;;23.70;25.50;;;31.60;16.44;102025.53;5031832;28;20206;-64
2023/04/27 08:40:08;;;;;;;7.40;2.97;;;24.00;26.40;;;32.03;16.06;102030.13;5024222;28;20244;-64
2023/04/27 08:42:36;;;;;;;4.00;2.80;;;24.30;25.80;;;32.41;15.44;102029.19;5031525;28;20209;-65
2023/04/27 08:45:07;;;;;;;3.03;2.30;;;24.50;25.30;;;32.57;15.44;102027.13;5031611;28;20863;-66
2023/04/27 08:47:37;;;;;;;2.23;2.03;;;24.80;25.00;;;32.87;14.83;102026.78;5027711;28;20194;-63
2023/04/27 08:50:10;;;;;;;2.53;1.83;;;25.00;24.10;;;33.24;14.30;102037.78;5027649;28;20204;-65
2023/04/27 08:52:37;;;;;;;3.53;1.90;;;25.20;23.20;;;33.33;14.29;102030.53;5030640;28;20249;-65
2023/04/27 08:55:08;;;;;;;3.83;2.13;;;25.40;23.10;;;33.49;14.58;102025.69;5027444;28;20214;-64
2023/04/27 08:57:35;;;;;;;2.37;2.03;;;25.60;24.00;;;33.85;13.99;102021.28;5028274;28;20262;-63
2023/04/27 09:00:11;;;;;;;2.70;2.20;;;25.80;23.10;;;34.31;13.98;102017.75;5032476;28;20194;-63
2023/04/27 09:02:47;;;;;;;2.67;2.20;;;26.00;22.70;;;34.73;13.23;102014.78;5020706;28;20209;-65
2023/04/27 09:05:16;;;;;;;3.37;2.50;;;26.30;22.00;;;34.75;13.38;102017.19;5014157;28;20229;-65
2023/04/27 09:07:56;;;;;;;3.50;2.70;;;26.50;22.20;;;34.75;13.55;102022.66;5031967;28;20234;-63
2023/04/27 09:10:23;;;;;;;2.97;2.20;;;26.70;22.30;;;34.75;13.46;102028.13;5028333;28;20252;-64
2023/04/27 09:12:56;;;;;;;5.87;2.77;;;26.90;22.00;;;34.51;13.38;102029.13;5027282;28;20504;-62
2023/04/27 09:15:23;;;;;;;3.67;2.47;;;26.90;21.00;;;34.33;13.01;102037.44;5026403;28;20236;-63
2023/04/27 09:17:56;;;;;;;5.03;2.77;;;26.80;20.60;;;34.28;12.35;102030.09;5031680;28;20225;-62
2023/04/27 09:20:25;;;;;;;4.20;3.53;;;26.90;20.30;;;34.51;12.86;102026.41;5033443;28;20632;-64
2023/04/27 09:22:54;;;;;;;3.83;2.70;;;26.90;20.40;;;34.70;12.42;102021.66;5033410;28;20198;-64
2023/04/27 09:25:23;;;;;;;4.27;2.87;;;26.90;21.00;;;35.07;12.04;102022.53;5031601;28;20635;-62
2023/04/27 09:27:50;;;;;;;6.00;3.00;;;27.10;20.70;;;35.45;12.37;102021.09;5031369;28;20268;-64
2023/04/27 09:30:18;;;;;;;5.20;3.23;;;27.30;20.70;;;35.84;11.91;102020.47;5019947;28;20203;-65
2023/04/27 09:32:51;;;;;;;3.33;3.03;;;27.40;20.60;;;36.06;12.24;102019.66;5035259;28;20222;-65
2023/04/27 09:35:25;;;;;;;4.37;2.90;;;27.50;19.70;;;36.18;12.02;102022.63;5031546;28;20214;-63
2023/04/27 09:37:54;;;;;;;4.77;3.60;;;27.70;20.10;;;36.55;11.03;102028.47;5042877;28;20222;-64
2023/04/27 09:40:26;;;;;;;2.70;2.47;;;27.80;19.90;;;36.68;11.55;102015.75;5031703;28;20217;-65
2023/04/27 09:42:55;;;;;;;2.90;2.57;;;27.90;19.30;;;36.82;10.79;102021.91;5032843;28;20261;-64
2023/04/27 09:45:23;;;;;;;3.10;2.90;;;28.10;19.30;;;36.53;10.82;102018.94;5029235;28;20234;-65
2023/04/27 09:47:51;;;;;;;4.43;3.20;;;28.00;18.50;;;36.35;10.75;102015.25;5031021;28;20213;-63
2023/04/27 09:50:20;;;;;;;2.70;2.40;;;28.10;18.50;;;36.27;11.04;102017.97;5032079;28;20293;-65
2023/04/27 09:52:49;;;;;;;2.77;2.47;;;28.10;18.20;;;36.40;10.51;102014.31;5025467;28;20250;-64
2023/04/27 09:55:21;;;;;;;3.27;2.53;;;28.20;17.70;;;36.44;10.32;102018.88;5023214;28;20242;-64
2023/04/27 09:58:00;;;;;;;3.70;2.70;;;28.10;17.50;;;36.28;10.58;102022.34;5031813;28;20245;-63
2023/04/27 10:00:47;;;;;;;2.67;2.42;;;28.20;17.50;;;36.15;10.78;102028.72;5034225;28;20511;-64
2023/04/27 10:03:31;;;;;;;5.20;2.70;;;28.20;17.70;;;36.21;11.01;102017.31;5035108;28;20194;-64
2023/04/27 10:06:45;;;;;;;2.37;2.03;;;28.10;18.10;;;36.53;10.86;102008.75;5028614;28;20659;-65
2023/04/27 10:09:13;;;;;;;3.58;2.38;;;28.30;18.10;;;36.68;10.84;102010.25;5032075;28;20257;-65
2023/04/27 10:11:43;;;;;;;2.75;2.20;;;28.30;18.40;;;36.90;10.48;102012.88;5032656;28;20198;-64
2023/04/27 10:14:18;;;;;;;4.28;2.70;;;28.40;17.80;;;36.65;10.78;102008.97;5028521;28;20277;-65
2023/04/27 10:16:51;;;;;;;2.80;2.50;;;28.60;17.80;;;36.20;10.46;102012.13;5030129;28;20218;-63
2023/04/27 10:19:20;;;;;;;3.33;2.28;;;28.50;16.90;;;35.67;11.15;102018.41;5032711;28;20201;-68
2023/04/27 10:21:56;;;;;;;2.77;2.57;;;28.60;17.40;;;34.29;11.46;102012.59;5030548;28;20191;-64
2023/04/27 10:24:39;;;;;;;4.33;3.23;;;28.10;17.10;;;32.80;12.00;102015.41;5025106;28;20226;-65
2023/04/27 10:27:10;;;;;;;3.00;2.70;;;27.50;18.00;;;31.44;13.45;102016.66;5037373;28;20194;-64
2023/04/27 10:29:40;;;;;;;3.20;2.60;;;26.70;18.40;;;30.46;13.28;102018.41;5040042;28;20494;-63
2023/04/27 10:32:11;;;;;;;3.97;2.60;;;25.70;18.90;;;29.12;14.42;102008.75;5028779;28;21059;-64
2023/04/27 10:34:40;;;;;;;3.77;3.30;;;24.70;19.30;;;27.60;15.83;102016.94;5031465;28;20222;-63
2023/04/27 10:37:09;;;;;;;3.63;3.10;;;24.00;20.30;;;26.59;16.68;102010.31;5014203;28;20214;-64